Terminal Aerodrome Forecast
Issued by NWS Corpus Christi, TX

Home | Current Version | Previous Version | Text Only | Print | Product List | Glossary On
Versions: 1 2 3 4 5 6 7 8 9 10 11 12 13 14 15 16 17 18 19 20 21 22 23
965
FTUS44 KCRP 241742
TAFCRP
TAF
KCRP 241742Z 2418/2518 14014G24KT P6SM SCT015 SCT025 BKN050
      TEMPO 2418/2421 BKN025
     FM250100 12014KT P6SM SCT020 BKN200
     FM250600 13010KT P6SM BKN015
     FM251000 13008KT P6SM OVC020
      TEMPO 2510/2512 BKN009
     FM251500 16016G24KT P6SM BKN025=

USA.gov is the U.S. government's official web portal to all federal, state and local government web resources and services.